createdAt,value
2019-05-19T00:02:22.603Z,30.85
2019-05-19T00:04:51.045Z,32.78
2019-05-19T00:07:19.488Z,30.02
2019-05-19T00:09:47.920Z,29.90
2019-05-19T00:12:16.372Z,31.80
2019-05-19T00:14:44.802Z,40.85
2019-05-19T00:17:13.289Z,34.38
2019-05-19T00:19:41.752Z,29.37
2019-05-19T00:22:10.213Z,35.75
2019-05-19T00:24:38.636Z,31.50
2019-05-19T00:27:07.081Z,33.90
2019-05-19T00:29:35.504Z,32.78
2019-05-19T00:32:03.954Z,34.50
2019-05-19T00:34:32.381Z,32.20
2019-05-19T00:37:00.819Z,31.00
2019-05-19T00:39:29.269Z,32.38
2019-05-19T00:41:57.776Z,31.23
2019-05-19T00:44:26.448Z,34.38
2019-05-19T00:46:54.893Z,31.93
2019-05-19T00:49:23.319Z,34.85
2019-05-19T00:51:51.765Z,34.18
2019-05-19T00:54:20.452Z,32.90
2019-05-19T00:56:49.728Z,33.18
2019-05-19T00:59:19.300Z,35.03
2019-05-19T01:01:47.735Z,38.15
2019-05-19T01:04:16.176Z,36.28
2019-05-19T01:06:44.887Z,31.97
2019-05-19T01:09:13.320Z,31.68
2019-05-19T01:11:41.767Z,33.00
2019-05-19T01:14:10.219Z,35.60
2019-05-19T01:16:38.731Z,35.50
2019-05-19T01:19:07.147Z,31.68
2019-05-19T01:21:36.833Z,32.48
2019-05-19T01:24:05.254Z,32.53
2019-05-19T01:26:33.710Z,35.33
2019-05-19T01:29:02.136Z,31.70
2019-05-19T01:31:42.694Z,34.10
2019-05-19T01:34:11.119Z,32.83
2019-05-19T01:36:39.554Z,33.65
2019-05-19T01:39:08.165Z,33.55
2019-05-19T01:41:36.600Z,33.05
2019-05-19T01:44:05.107Z,39.23
2019-05-19T01:46:33.540Z,36.45
2019-05-19T01:49:01.980Z,42.73
2019-05-19T01:51:30.411Z,48.30
2019-05-19T01:53:58.851Z,46.20
2019-05-19T01:56:27.286Z,46.80
2019-05-19T01:58:55.723Z,46.98
2019-05-19T02:01:24.161Z,45.25
2019-05-19T02:03:52.596Z,47.25
2019-05-19T02:06:21.048Z,42.10
2019-05-19T02:08:49.482Z,43.35
2019-05-19T02:11:17.935Z,43.25
2019-05-19T02:13:46.431Z,40.55
2019-05-19T02:16:14.863Z,41.35
2019-05-19T02:18:43.300Z,41.55
2019-05-19T02:21:11.723Z,40.75
2019-05-19T02:23:40.164Z,42.95
2019-05-19T02:26:08.596Z,44.77
2019-05-19T02:28:37.032Z,43.78
2019-05-19T02:31:05.471Z,41.30
2019-05-19T02:33:35.801Z,42.65
2019-05-19T02:36:04.077Z,39.25
2019-05-19T02:38:32.523Z,42.78
2019-05-19T02:41:02.641Z,39.00
2019-05-19T02:43:32.020Z,39.45
2019-05-19T02:46:01.603Z,42.73
2019-05-19T02:48:31.572Z,40.17
2019-05-19T02:51:01.944Z,41.15
2019-05-19T02:53:31.899Z,39.10
2019-05-19T02:56:02.085Z,39.10
2019-05-19T02:58:31.461Z,37.23
2019-05-19T03:00:59.896Z,41.30
2019-05-19T03:03:28.330Z,39.25
2019-05-19T03:05:56.756Z,36.45
2019-05-19T03:08:25.205Z,40.20
2019-05-19T03:10:53.647Z,39.70
2019-05-19T03:13:22.144Z,34.75
2019-05-19T03:15:50.573Z,37.48
2019-05-19T03:18:19.017Z,38.80
2019-05-19T03:20:47.447Z,39.30
2019-05-19T03:23:15.883Z,36.30
2019-05-19T03:25:44.586Z,44.73
2019-05-19T03:28:13.245Z,36.77
2019-05-19T03:30:49.020Z,35.60
2019-05-19T03:33:31.100Z,39.13
2019-05-19T03:35:59.586Z,35.78
2019-05-19T03:38:28.028Z,33.53
2019-05-19T03:40:56.705Z,33.60
2019-05-19T03:43:25.159Z,33.53
2019-05-19T03:45:53.597Z,31.57
2019-05-19T03:48:22.605Z,33.80
2019-05-19T03:50:51.051Z,34.27
2019-05-19T03:53:19.730Z,32.63
2019-05-19T03:55:48.168Z,33.60
2019-05-19T03:58:16.623Z,32.98
2019-05-19T04:00:45.047Z,37.13
2019-05-19T04:03:13.475Z,31.93
2019-05-19T04:05:41.915Z,31.95
2019-05-19T04:08:10.343Z,31.40
2019-05-19T04:10:38.785Z,31.45
2019-05-19T04:13:07.212Z,30.45
2019-05-19T04:15:35.657Z,27.90
2019-05-19T04:18:04.087Z,27.02
2019-05-19T04:20:32.535Z,28.20
2019-05-19T04:23:00.964Z,28.15
2019-05-19T04:25:29.480Z,29.87
2019-05-19T04:27:57.903Z,26.52
2019-05-19T04:30:26.347Z,24.80
2019-05-19T04:32:54.788Z,26.50
2019-05-19T04:35:23.228Z,25.72
2019-05-19T04:37:51.656Z,30.05
2019-05-19T04:40:20.087Z,26.45
2019-05-19T04:42:48.524Z,23.52
2019-05-19T04:45:17.028Z,28.87
2019-05-19T04:47:45.461Z,26.07
2019-05-19T04:50:14.043Z,25.55
2019-05-19T04:52:42.502Z,24.25
2019-05-19T04:55:11.057Z,28.95
2019-05-19T04:57:39.491Z,28.55
2019-05-19T05:00:09.780Z,27.30
2019-05-19T05:02:38.209Z,27.07
2019-05-19T05:05:07.163Z,26.40
2019-05-19T05:07:35.592Z,28.38
2019-05-19T05:10:04.968Z,26.90
2019-05-19T05:12:33.408Z,24.92
2019-05-19T05:15:01.865Z,27.50
2019-05-19T05:17:30.357Z,28.62
2019-05-19T05:19:58.803Z,26.50
2019-05-19T05:22:27.236Z,28.73
2019-05-19T05:24:55.706Z,24.95
2019-05-19T05:27:24.197Z,23.62
2019-05-19T05:29:52.627Z,23.67
2019-05-19T05:32:21.059Z,23.32
2019-05-19T05:34:49.547Z,22.17
2019-05-19T05:37:17.992Z,21.90
2019-05-19T05:39:46.497Z,22.95
2019-05-19T05:42:15.176Z,24.05
2019-05-19T05:44:43.612Z,23.47
2019-05-19T05:47:12.038Z,23.05
2019-05-19T05:49:40.476Z,23.67
2019-05-19T05:52:08.909Z,21.37
2019-05-19T05:54:37.340Z,23.80
2019-05-19T05:57:05.767Z,20.77
2019-05-19T05:59:34.213Z,22.37
2019-05-19T06:02:02.644Z,20.85
2019-05-19T06:04:31.204Z,22.42
2019-05-19T06:06:59.662Z,24.00
2019-05-19T06:09:28.092Z,22.32
2019-05-19T06:11:56.531Z,22.90
2019-05-19T06:14:24.971Z,20.00
2019-05-19T06:16:53.407Z,20.82
2019-05-19T06:19:21.844Z,21.27
2019-05-19T06:21:50.281Z,23.98
2019-05-19T06:24:18.721Z,19.65
2019-05-19T06:26:47.145Z,18.20
2019-05-19T06:29:15.626Z,20.00
2019-05-19T06:31:44.087Z,17.75
2019-05-19T06:34:12.520Z,18.67
2019-05-19T06:36:40.961Z,17.32
2019-05-19T06:39:09.389Z,16.42
2019-05-19T06:41:37.820Z,16.50
2019-05-19T06:44:06.270Z,15.75
2019-05-19T06:46:34.703Z,15.60
2019-05-19T06:49:03.131Z,16.27
2019-05-19T06:51:31.590Z,16.82
2019-05-19T06:54:00.095Z,16.62
2019-05-19T06:56:28.540Z,14.03
2019-05-19T06:58:56.971Z,13.13
2019-05-19T07:01:25.407Z,12.47
2019-05-19T07:03:53.846Z,13.40
2019-05-19T07:06:22.284Z,14.90
2019-05-19T07:08:50.964Z,13.05
2019-05-19T07:11:19.404Z,12.18
2019-05-19T07:13:47.833Z,10.68
2019-05-19T07:16:16.277Z,12.03
2019-05-19T07:18:44.733Z,11.00
2019-05-19T07:21:13.167Z,13.95
2019-05-19T07:23:41.588Z,12.35
2019-05-19T07:26:10.026Z,11.70
2019-05-19T07:28:38.447Z,10.78
2019-05-19T07:31:06.880Z,10.15
2019-05-19T07:33:35.316Z,11.93
2019-05-19T07:36:03.754Z,11.15
2019-05-19T07:38:32.186Z,12.73
2019-05-19T07:41:00.609Z,10.82
2019-05-19T07:43:29.041Z,9.95
2019-05-19T07:45:57.480Z,16.45
2019-05-19T07:48:25.899Z,11.80
2019-05-19T07:50:54.336Z,12.82
2019-05-19T07:53:22.768Z,9.98
2019-05-19T07:55:51.193Z,11.70
2019-05-19T07:58:19.734Z,11.53
2019-05-19T08:00:48.160Z,11.08
2019-05-19T08:03:16.606Z,12.73
2019-05-19T08:05:45.055Z,12.60
2019-05-19T08:08:13.479Z,13.32
2019-05-19T08:10:42.085Z,11.12
2019-05-19T08:13:10.645Z,11.73
2019-05-19T08:15:39.117Z,11.45
2019-05-19T08:18:07.555Z,10.98
2019-05-19T08:20:35.992Z,12.20
2019-05-19T08:23:04.443Z,11.75
2019-05-19T08:25:32.868Z,10.82
2019-05-19T08:28:08.316Z,14.85
2019-05-19T08:30:31.512Z,13.10
2019-05-19T08:32:59.958Z,11.18
2019-05-19T08:35:28.385Z,10.75
2019-05-19T08:37:56.826Z,11.43
2019-05-19T08:40:25.256Z,12.25
2019-05-19T08:42:53.704Z,12.88
2019-05-19T08:45:22.123Z,12.95
2019-05-19T08:47:50.558Z,11.75
2019-05-19T08:50:18.976Z,12.53
2019-05-19T08:52:47.430Z,11.85
2019-05-19T08:55:15.857Z,12.60
2019-05-19T08:57:44.298Z,12.50
2019-05-19T09:00:12.973Z,12.07
2019-05-19T09:02:41.403Z,12.55
2019-05-19T09:05:09.976Z,11.80
2019-05-19T09:07:38.718Z,15.25
2019-05-19T09:10:11.151Z,13.25
2019-05-19T09:12:39.583Z,12.60
2019-05-19T09:15:08.453Z,17.95
2019-05-19T09:17:36.885Z,12.03
2019-05-19T09:20:06.530Z,11.48
2019-05-19T09:22:34.960Z,12.18
2019-05-19T09:25:05.130Z,12.43
2019-05-19T09:27:33.572Z,10.00
2019-05-19T09:30:02.078Z,12.07
2019-05-19T09:32:30.511Z,11.18
2019-05-19T09:34:58.957Z,12.65
2019-05-19T09:37:27.400Z,9.55
2019-05-19T09:39:55.871Z,10.28
2019-05-19T09:42:24.307Z,9.43
2019-05-19T09:44:52.731Z,11.70
2019-05-19T09:47:21.156Z,12.75
2019-05-19T09:49:49.602Z,10.38
2019-05-19T09:52:18.021Z,9.85
2019-05-19T09:54:46.463Z,12.00
2019-05-19T09:57:14.890Z,12.10
2019-05-19T09:59:43.340Z,9.85
2019-05-19T10:02:11.775Z,10.48
2019-05-19T10:04:40.221Z,10.78
2019-05-19T10:07:09.156Z,9.43
2019-05-19T10:09:47.435Z,14.45
2019-05-19T10:12:15.860Z,9.95
2019-05-19T10:14:44.300Z,11.05
2019-05-19T10:17:12.733Z,9.05
2019-05-19T10:19:41.180Z,12.50
2019-05-19T10:22:09.605Z,10.35
2019-05-19T10:24:38.050Z,10.28
2019-05-19T10:27:06.472Z,9.18
2019-05-19T10:29:34.912Z,10.82
2019-05-19T10:32:03.341Z,8.93
2019-05-19T10:34:31.789Z,10.88
2019-05-19T10:37:00.216Z,8.83
2019-05-19T10:39:28.655Z,10.35
2019-05-19T10:41:57.084Z,8.63
2019-05-19T10:44:25.523Z,10.13
2019-05-19T10:46:53.963Z,8.23
2019-05-19T10:49:22.405Z,9.03
2019-05-19T10:51:50.833Z,7.65
2019-05-19T10:54:19.282Z,9.75
2019-05-19T10:56:47.703Z,15.78
2019-05-19T10:59:16.184Z,8.23
2019-05-19T11:01:44.613Z,8.30
2019-05-19T11:04:13.054Z,10.48
2019-05-19T11:06:41.482Z,8.18
2019-05-19T11:09:09.922Z,7.67
2019-05-19T11:11:38.349Z,12.88
2019-05-19T11:14:06.815Z,14.35
2019-05-19T11:16:35.232Z,10.65
2019-05-19T11:19:03.849Z,31.75
2019-05-19T11:21:32.280Z,16.85
2019-05-19T11:24:00.793Z,25.92
2019-05-19T11:26:29.226Z,14.00
2019-05-19T11:28:59.153Z,9.03
2019-05-19T11:31:27.568Z,10.90
2019-05-19T11:33:56.001Z,7.87
2019-05-19T11:36:24.433Z,6.67
2019-05-19T11:38:52.867Z,8.68
2019-05-19T11:41:21.291Z,7.92
2019-05-19T11:43:49.753Z,9.53
2019-05-19T11:46:18.180Z,11.75
2019-05-19T11:48:46.608Z,11.35
2019-05-19T11:51:15.047Z,20.43
2019-05-19T11:53:43.484Z,7.30
2019-05-19T11:56:11.926Z,8.23
2019-05-19T11:58:40.469Z,8.23
2019-05-19T12:01:08.945Z,9.25
2019-05-19T12:03:37.375Z,8.93
2019-05-19T12:06:06.283Z,7.67
2019-05-19T12:08:34.704Z,7.55
2019-05-19T12:11:03.153Z,8.50
2019-05-19T12:13:34.794Z,7.75
2019-05-19T12:16:01.733Z,6.75
2019-05-19T12:18:30.236Z,7.83
2019-05-19T12:20:58.682Z,112.85
2019-05-19T12:23:27.107Z,8.50
2019-05-19T12:25:55.558Z,8.50
2019-05-19T12:28:23.978Z,6.50
2019-05-19T12:30:52.416Z,6.65
2019-05-19T12:33:20.852Z,6.87
2019-05-19T12:35:49.304Z,6.30
2019-05-19T12:38:17.735Z,7.25
2019-05-19T12:40:46.180Z,7.30
2019-05-19T12:43:14.615Z,6.55
2019-05-19T12:45:43.094Z,6.30
2019-05-19T12:48:11.575Z,5.67
2019-05-19T12:50:40.092Z,8.20
2019-05-19T12:53:08.527Z,5.42
2019-05-19T12:55:36.960Z,7.55
2019-05-19T12:58:05.384Z,5.37
2019-05-19T13:00:33.892Z,5.25
2019-05-19T13:03:02.318Z,4.67
2019-05-19T13:05:30.758Z,5.30
2019-05-19T13:07:59.203Z,7.65
2019-05-19T13:10:27.622Z,6.85
2019-05-19T13:12:56.049Z,6.92
2019-05-19T13:15:24.492Z,4.90
2019-05-19T13:17:52.991Z,6.12
2019-05-19T13:20:23.067Z,5.53
2019-05-19T13:22:51.498Z,5.40
2019-05-19T13:25:19.937Z,6.33
2019-05-19T13:27:48.394Z,5.47
2019-05-19T13:30:22.729Z,5.42
2019-05-19T13:32:51.344Z,5.30
2019-05-19T13:35:19.843Z,5.50
2019-05-19T13:37:48.280Z,5.87
2019-05-19T13:40:16.705Z,5.12
2019-05-19T13:42:45.132Z,4.97
2019-05-19T13:45:13.995Z,4.65
2019-05-19T13:47:42.453Z,5.00
2019-05-19T13:50:11.637Z,5.50
2019-05-19T13:52:40.137Z,5.47
2019-05-19T13:55:09.101Z,4.72
2019-05-19T13:57:37.535Z,4.95
2019-05-19T14:00:06.691Z,7.20
2019-05-19T14:02:35.120Z,5.28
2019-05-19T14:05:04.028Z,4.75
2019-05-19T14:07:32.464Z,4.83
2019-05-19T14:10:01.861Z,5.05
2019-05-19T14:12:30.391Z,5.85
2019-05-19T14:14:58.887Z,4.47
2019-05-19T14:17:27.312Z,5.03
2019-05-19T14:19:55.735Z,4.40
2019-05-19T14:22:24.171Z,5.85
2019-05-19T14:24:52.602Z,6.05
2019-05-19T14:27:29.547Z,5.60
2019-05-19T14:29:51.224Z,5.83
2019-05-19T14:32:19.703Z,4.25
2019-05-19T14:34:48.119Z,4.08
2019-05-19T14:37:16.554Z,4.75
2019-05-19T14:39:44.990Z,4.10
2019-05-19T14:42:15.057Z,4.15
2019-05-19T14:44:43.482Z,5.67
2019-05-19T14:47:12.016Z,3.65
2019-05-19T14:49:40.444Z,4.20
2019-05-19T14:52:08.939Z,3.90
2019-05-19T14:54:37.380Z,3.70
2019-05-19T14:57:05.807Z,3.62
2019-05-19T14:59:38.398Z,4.53
2019-05-19T15:02:06.828Z,5.05
2019-05-19T15:04:43.342Z,5.42
2019-05-19T15:07:11.773Z,5.15
2019-05-19T15:09:40.196Z,5.58
2019-05-19T15:12:08.636Z,6.35
2019-05-19T15:14:37.058Z,6.33
2019-05-19T15:17:05.491Z,5.65
2019-05-19T15:19:33.929Z,6.17
2019-05-19T15:22:02.440Z,6.33
2019-05-19T15:24:30.873Z,5.67
2019-05-19T15:26:59.309Z,5.30
2019-05-19T15:29:27.732Z,6.53
2019-05-19T15:31:56.176Z,11.93
2019-05-19T15:34:24.591Z,6.45
2019-05-19T15:36:53.031Z,5.60
2019-05-19T15:39:21.452Z,9.88
2019-05-19T15:41:49.879Z,8.60
2019-05-19T15:44:18.322Z,6.97
2019-05-19T15:46:46.749Z,7.80
2019-05-19T15:49:15.175Z,6.10
2019-05-19T15:51:59.347Z,5.72
2019-05-19T15:54:13.769Z,5.10
2019-05-19T15:56:42.256Z,4.80
2019-05-19T15:59:10.695Z,5.70
2019-05-19T16:01:39.124Z,5.17
2019-05-19T16:04:07.557Z,5.33
2019-05-19T16:06:38.970Z,7.53
2019-05-19T16:09:07.487Z,5.08
2019-05-19T16:11:35.915Z,5.20
2019-05-19T16:14:04.820Z,5.08
2019-05-19T16:16:33.240Z,5.20
2019-05-19T16:19:01.755Z,5.65
2019-05-19T16:21:30.163Z,5.28
2019-05-19T16:23:58.615Z,6.42
2019-05-19T16:26:27.350Z,8.48
2019-05-19T16:28:55.772Z,5.97
2019-05-19T16:31:24.201Z,6.70
2019-05-19T16:33:52.875Z,9.00
2019-05-19T16:36:21.304Z,4.55
2019-05-19T16:38:49.737Z,5.75
2019-05-19T16:41:18.165Z,5.17
2019-05-19T16:43:49.403Z,5.78
2019-05-19T16:46:18.878Z,6.50
2019-05-19T16:48:47.313Z,5.47
2019-05-19T16:51:15.749Z,6.00
2019-05-19T16:53:45.830Z,5.50
2019-05-19T16:56:14.262Z,8.48
2019-05-19T16:58:45.471Z,5.72
2019-05-19T17:01:19.907Z,5.35
2019-05-19T17:03:46.922Z,5.53
2019-05-19T17:06:15.345Z,5.40
2019-05-19T17:08:43.788Z,7.33
2019-05-19T17:11:18.496Z,5.28
2019-05-19T17:13:42.368Z,5.45
2019-05-19T17:16:10.798Z,5.53
2019-05-19T17:18:39.234Z,4.90
2019-05-19T17:21:07.660Z,5.40
2019-05-19T17:23:36.087Z,6.97
2019-05-19T17:26:04.533Z,6.83
2019-05-19T17:28:32.955Z,6.33
2019-05-19T17:31:01.380Z,5.40
2019-05-19T17:33:29.807Z,6.60
2019-05-19T17:35:58.292Z,4.53
2019-05-19T17:38:26.749Z,19.40
2019-05-19T17:40:55.176Z,7.33
2019-05-19T17:43:23.604Z,6.17
2019-05-19T17:45:52.038Z,7.22
2019-05-19T17:48:26.530Z,7.00
2019-05-19T17:50:52.259Z,8.85
2019-05-19T17:53:21.020Z,8.38
2019-05-19T17:55:49.862Z,6.20
2019-05-19T17:58:18.363Z,7.37
2019-05-19T18:00:46.804Z,7.35
2019-05-19T18:03:15.233Z,8.60
2019-05-19T18:05:43.676Z,7.03
2019-05-19T18:08:12.091Z,7.30
2019-05-19T18:10:40.527Z,8.08
2019-05-19T18:13:08.948Z,6.58
2019-05-19T18:15:37.471Z,8.18
2019-05-19T18:18:05.965Z,6.45
2019-05-19T18:20:34.412Z,7.05
2019-05-19T18:23:02.848Z,5.28
2019-05-19T18:25:31.312Z,9.08
2019-05-19T18:27:59.791Z,5.80
2019-05-19T18:30:28.303Z,5.55
2019-05-19T18:32:56.733Z,25.82
2019-05-19T18:35:25.188Z,30.90
2019-05-19T18:37:53.637Z,15.48
2019-05-19T18:40:22.211Z,9.20
2019-05-19T18:42:52.585Z,8.13
2019-05-19T18:45:21.027Z,6.17
2019-05-19T18:47:49.494Z,6.92
2019-05-19T18:50:18.156Z,5.20
2019-05-19T18:52:51.409Z,5.83
2019-05-19T18:55:20.020Z,5.80
2019-05-19T18:57:48.630Z,6.53
2019-05-19T19:00:20.208Z,4.30
2019-05-19T19:02:48.629Z,7.62
2019-05-19T19:05:17.059Z,4.60
2019-05-19T19:07:50.052Z,5.17
2019-05-19T19:10:18.809Z,5.72
2019-05-19T19:12:47.689Z,4.45
2019-05-19T19:15:16.106Z,4.28
2019-05-19T19:17:44.523Z,6.22
2019-05-19T19:20:13.036Z,9.18
2019-05-19T19:22:41.461Z,6.53
2019-05-19T19:25:09.968Z,6.05
2019-05-19T19:27:38.395Z,8.08
2019-05-19T19:30:08.109Z,7.55
2019-05-19T19:32:36.622Z,11.40
2019-05-19T19:35:08.524Z,15.83
2019-05-19T19:37:36.965Z,68.42
2019-05-19T19:40:08.581Z,16.62
2019-05-19T19:42:37.141Z,8.63
2019-05-19T19:45:06.661Z,4.97
2019-05-19T19:47:35.186Z,6.95
2019-05-19T19:50:05.577Z,5.97
2019-05-19T19:52:34.017Z,6.12
2019-05-19T19:55:02.503Z,6.50
2019-05-19T19:57:30.949Z,6.10
2019-05-19T20:00:00.486Z,6.58
2019-05-19T20:02:29.007Z,7.87
2019-05-19T20:04:57.454Z,6.60
2019-05-19T20:07:25.913Z,5.90
2019-05-19T20:09:54.497Z,8.80
2019-05-19T20:12:22.935Z,7.75
2019-05-19T20:14:51.374Z,6.95
2019-05-19T20:17:19.818Z,7.05
2019-05-19T20:19:48.262Z,8.00
2019-05-19T20:22:16.704Z,5.87
2019-05-19T20:24:45.261Z,7.33
2019-05-19T20:27:13.733Z,6.05
2019-05-19T20:29:42.232Z,6.83
2019-05-19T20:32:10.733Z,6.42
2019-05-19T20:34:39.252Z,7.40
2019-05-19T20:37:07.701Z,8.48
2019-05-19T20:39:36.124Z,7.37
2019-05-19T20:42:04.718Z,11.35
2019-05-19T20:44:33.230Z,6.85
2019-05-19T20:47:02.472Z,11.43
2019-05-19T20:49:30.907Z,8.60
2019-05-19T20:51:59.378Z,9.58
2019-05-19T20:54:27.824Z,12.50
2019-05-19T20:56:56.278Z,7.75
2019-05-19T20:59:24.749Z,10.72
2019-05-19T21:01:53.179Z,8.13
2019-05-19T21:04:22.740Z,8.93
2019-05-19T21:06:51.267Z,10.38
2019-05-19T21:09:19.675Z,7.92
2019-05-19T21:11:48.171Z,7.47
2019-05-19T21:14:16.649Z,7.95
2019-05-19T21:16:45.109Z,8.18
2019-05-19T21:19:13.604Z,8.20
2019-05-19T21:21:42.061Z,7.62
2019-05-19T21:24:10.509Z,7.67
2019-05-19T21:26:38.939Z,12.18
2019-05-19T21:29:07.377Z,8.18
2019-05-19T21:31:35.837Z,9.65
2019-05-19T21:34:04.288Z,7.47
2019-05-19T21:36:32.795Z,8.43
2019-05-19T21:39:01.212Z,10.85
2019-05-19T21:41:29.652Z,8.70
2019-05-19T21:43:58.098Z,8.75
2019-05-19T21:46:26.570Z,7.78
2019-05-19T21:48:55.067Z,7.45
2019-05-19T21:51:23.764Z,23.85
2019-05-19T21:53:52.205Z,23.85
2019-05-19T21:56:20.644Z,13.93
2019-05-19T21:58:49.104Z,9.70
2019-05-19T22:01:23.277Z,10.32
2019-05-19T22:03:47.799Z,10.28
2019-05-19T22:06:16.988Z,10.40
2019-05-19T22:08:45.461Z,10.50
2019-05-19T22:11:13.904Z,10.23
2019-05-19T22:13:42.343Z,9.50
2019-05-19T22:16:13.461Z,10.65
2019-05-19T22:18:40.972Z,8.25
2019-05-19T22:21:09.443Z,10.45
2019-05-19T22:23:37.910Z,8.40
2019-05-19T22:26:06.369Z,8.90
2019-05-19T22:28:34.805Z,9.78
2019-05-19T22:31:03.247Z,11.12
2019-05-19T22:33:31.685Z,8.68
2019-05-19T22:36:00.279Z,8.63
2019-05-19T22:38:28.753Z,8.93
2019-05-19T22:40:57.175Z,9.58
2019-05-19T22:43:25.657Z,7.85
2019-05-19T22:45:54.092Z,8.10
2019-05-19T22:48:22.584Z,9.45
2019-05-19T22:50:51.015Z,11.90
2019-05-19T22:53:20.233Z,10.88
2019-05-19T22:55:48.661Z,11.12
2019-05-19T22:58:17.113Z,9.58
2019-05-19T23:00:45.562Z,8.78
2019-05-19T23:03:13.996Z,9.45
2019-05-19T23:05:42.428Z,10.80
2019-05-19T23:08:10.860Z,11.83
2019-05-19T23:10:39.301Z,13.15
2019-05-19T23:13:08.395Z,10.15
2019-05-19T23:15:36.968Z,8.58
2019-05-19T23:18:05.436Z,10.50
2019-05-19T23:20:33.869Z,8.58
2019-05-19T23:23:02.395Z,9.63
2019-05-19T23:25:30.869Z,9.55
2019-05-19T23:27:59.405Z,9.38
2019-05-19T23:30:27.842Z,11.05
2019-05-19T23:32:56.282Z,9.38
2019-05-19T23:35:24.720Z,8.35
2019-05-19T23:37:53.161Z,10.05
2019-05-19T23:40:21.592Z,10.48
2019-05-19T23:42:50.042Z,9.40
2019-05-19T23:45:18.464Z,10.00
2019-05-19T23:47:46.933Z,9.83
2019-05-19T23:50:15.638Z,10.13
2019-05-19T23:52:44.129Z,10.50
2019-05-19T23:55:12.732Z,11.53
2019-05-19T23:57:41.160Z,15.23
